createdAt,value
2023-03-10T00:00:40.145Z,100637.78
2023-03-10T00:03:08.261Z,100630.56
2023-03-10T00:05:37.580Z,100633.53
2023-03-10T00:08:06.247Z,100629.09
2023-03-10T00:10:33.606Z,100633.84
2023-03-10T00:13:01.026Z,100626.81
2023-03-10T00:15:28.491Z,100636.47
2023-03-10T00:17:56.028Z,100622.03
2023-03-10T00:20:23.708Z,100623.00
2023-03-10T00:22:51.039Z,100622.34
2023-03-10T00:25:18.455Z,100614.09
2023-03-10T00:27:46.082Z,100608.75
2023-03-10T00:30:13.730Z,100609.59
2023-03-10T00:32:41.149Z,100613.19
2023-03-10T00:35:08.814Z,100609.25
2023-03-10T00:37:38.443Z,100604.84
2023-03-10T00:40:10.739Z,100606.78
2023-03-10T00:42:39.750Z,100612.72
2023-03-10T00:45:08.370Z,100608.03
2023-03-10T00:47:35.684Z,100614.94
2023-03-10T00:50:03.048Z,100611.16
2023-03-10T00:52:33.909Z,100622.25
2023-03-10T00:55:01.223Z,100625.19
2023-03-10T00:57:29.996Z,100624.44
2023-03-10T00:59:57.424Z,100616.34
2023-03-10T01:02:24.720Z,100616.72
2023-03-10T01:04:52.222Z,100612.19
2023-03-10T01:07:19.589Z,100604.56
2023-03-10T01:09:46.929Z,100607.47
2023-03-10T01:12:14.348Z,100601.78
2023-03-10T01:14:41.712Z,100600.63
2023-03-10T01:17:09.306Z,100611.19
2023-03-10T01:19:36.641Z,100602.00
2023-03-10T01:22:04.069Z,100604.97
2023-03-10T01:24:31.626Z,100608.47
2023-03-10T01:26:58.998Z,100606.72
2023-03-10T01:29:27.149Z,100602.63
2023-03-10T01:31:56.337Z,100592.00
2023-03-10T01:34:23.654Z,100598.25
2023-03-10T01:36:50.998Z,100599.31
2023-03-10T01:39:18.543Z,100600.81
2023-03-10T01:41:45.853Z,100607.22
2023-03-10T01:44:20.171Z,100601.53
2023-03-10T01:46:55.474Z,100603.19
2023-03-10T01:49:42.394Z,100603.34
2023-03-10T01:52:17.942Z,100602.69
2023-03-10T01:55:26.977Z,100603.19
2023-03-10T01:57:57.099Z,100590.19
2023-03-10T02:00:27.043Z,100600.75
2023-03-10T02:03:08.103Z,100600.09
2023-03-10T02:05:38.892Z,100593.38
2023-03-10T02:08:07.355Z,100593.56
2023-03-10T02:10:34.595Z,100594.19
2023-03-10T02:13:01.973Z,100592.22
2023-03-10T02:15:30.123Z,100594.19
2023-03-10T02:17:58.401Z,100593.78
2023-03-10T02:20:41.447Z,100607.88
2023-03-10T02:23:11.327Z,100604.91
2023-03-10T02:25:47.102Z,100606.06
2023-03-10T02:28:14.689Z,100599.50
2023-03-10T02:30:47.534Z,100591.44
2023-03-10T02:33:27.968Z,100594.25
2023-03-10T02:36:14.740Z,100597.03
2023-03-10T02:38:42.238Z,100590.78
2023-03-10T02:41:21.793Z,100585.88
2023-03-10T02:43:50.511Z,100583.59
2023-03-10T02:46:26.455Z,100583.91
2023-03-10T02:48:54.000Z,100583.91
2023-03-10T02:51:33.241Z,100580.00
2023-03-10T02:54:04.548Z,100578.03
2023-03-10T02:56:34.942Z,100570.44
2023-03-10T02:59:02.540Z,100573.91
2023-03-10T03:01:30.734Z,100573.41
2023-03-10T03:03:59.449Z,100577.84
2023-03-10T03:06:27.587Z,100576.84
2023-03-10T03:08:55.026Z,100582.56
2023-03-10T03:11:24.594Z,100581.38
2023-03-10T03:13:53.581Z,100584.31
2023-03-10T03:16:21.246Z,100588.13
2023-03-10T03:18:53.240Z,100589.72
2023-03-10T03:21:23.028Z,100589.38
2023-03-10T03:23:50.676Z,100580.97
2023-03-10T03:26:23.853Z,100580.91
2023-03-10T03:28:54.878Z,100579.78
2023-03-10T03:31:27.117Z,100576.28
2023-03-10T03:34:05.880Z,100579.78
2023-03-10T03:36:34.017Z,100582.78
2023-03-10T03:39:01.650Z,100583.56
2023-03-10T03:41:31.903Z,100584.97
2023-03-10T03:43:59.978Z,100578.69
2023-03-10T03:46:27.844Z,100584.09
2023-03-10T03:48:55.605Z,100589.97
2023-03-10T03:51:23.183Z,100583.03
2023-03-10T03:53:50.787Z,100583.50
2023-03-10T03:56:18.370Z,100585.88
2023-03-10T03:58:46.405Z,100583.03
2023-03-10T04:01:14.537Z,100586.56
2023-03-10T04:03:46.991Z,100580.72
2023-03-10T04:06:17.178Z,100584.84
2023-03-10T04:08:45.120Z,100580.03
2023-03-10T04:11:13.479Z,100577.13
2023-03-10T04:13:43.790Z,100575.94
2023-03-10T04:16:12.866Z,100574.66
2023-03-10T04:18:41.869Z,100568.22
2023-03-10T04:21:12.251Z,100573.81
2023-03-10T04:23:42.413Z,100569.41
2023-03-10T04:26:12.210Z,100579.72
2023-03-10T04:28:41.161Z,100575.53
2023-03-10T04:31:18.016Z,100574.06
2023-03-10T04:33:47.620Z,100579.44
2023-03-10T04:36:16.371Z,100574.56
2023-03-10T04:38:46.681Z,100573.44
2023-03-10T04:41:14.451Z,100557.84
2023-03-10T04:43:47.631Z,100564.09
2023-03-10T04:46:16.589Z,100566.41
2023-03-10T04:48:44.914Z,100569.09
2023-03-10T04:51:13.929Z,100568.97
2023-03-10T04:54:01.017Z,100563.84
2023-03-10T04:56:33.080Z,100569.78
2023-03-10T04:59:01.659Z,100581.56
2023-03-10T05:01:33.473Z,100578.66
2023-03-10T05:04:06.813Z,100576.50
2023-03-10T05:06:35.733Z,100579.66
2023-03-10T05:09:36.324Z,100569.47
2023-03-10T05:12:05.837Z,100577.41
2023-03-10T05:14:37.835Z,100570.88
2023-03-10T05:17:06.707Z,100569.28
2023-03-10T05:19:37.634Z,100566.03
2023-03-10T05:22:06.696Z,100570.84
2023-03-10T05:24:37.288Z,100562.28
2023-03-10T05:27:04.974Z,100567.56
2023-03-10T05:29:36.678Z,100561.97
2023-03-10T05:32:10.908Z,100566.25
2023-03-10T05:34:45.475Z,100569.72
2023-03-10T05:37:13.289Z,100561.78
2023-03-10T05:39:44.568Z,100570.00
2023-03-10T05:42:20.103Z,100571.97
2023-03-10T05:44:53.641Z,100562.41
2023-03-10T05:47:25.684Z,100562.00
2023-03-10T05:49:54.321Z,100560.31
2023-03-10T05:52:22.448Z,100551.75
2023-03-10T05:54:57.032Z,100567.50
2023-03-10T05:57:25.064Z,100570.56
2023-03-10T05:59:53.340Z,100565.31
2023-03-10T06:02:21.647Z,100573.75
2023-03-10T06:04:49.062Z,100580.34
2023-03-10T06:07:18.057Z,100585.75
2023-03-10T06:09:46.220Z,100587.50
2023-03-10T06:12:15.776Z,100583.91
2023-03-10T06:14:43.300Z,100589.13
2023-03-10T06:17:11.399Z,100573.09
2023-03-10T06:19:41.096Z,100577.81
2023-03-10T06:22:12.002Z,100578.84
2023-03-10T06:24:40.013Z,100573.00
2023-03-10T06:27:11.280Z,100560.44
2023-03-10T06:29:40.093Z,100545.06
2023-03-10T06:32:08.047Z,100562.91
2023-03-10T06:34:35.859Z,100569.44
2023-03-10T06:37:06.589Z,100566.31
2023-03-10T06:39:40.527Z,100572.88
2023-03-10T06:42:09.382Z,100569.50
2023-03-10T06:44:37.463Z,100567.66
2023-03-10T06:47:06.063Z,100570.94
2023-03-10T06:49:34.383Z,100555.63
2023-03-10T06:52:02.316Z,100566.53
2023-03-10T06:54:29.883Z,100552.69
2023-03-10T06:56:57.676Z,100547.06
2023-03-10T06:59:25.720Z,100557.47
2023-03-10T07:01:53.639Z,100554.03
2023-03-10T07:04:21.287Z,100550.94
2023-03-10T07:06:49.633Z,100549.22
2023-03-10T07:09:17.424Z,100550.41
2023-03-10T07:11:45.421Z,100551.03
2023-03-10T07:14:13.103Z,100549.81
2023-03-10T07:16:43.776Z,100541.63
2023-03-10T07:19:15.832Z,100533.97
2023-03-10T07:21:44.376Z,100529.44
2023-03-10T07:24:13.452Z,100525.75
2023-03-10T07:26:52.917Z,100533.88
2023-03-10T07:29:37.693Z,100534.34
2023-03-10T07:32:07.295Z,100533.34
2023-03-10T07:34:38.386Z,100524.50
2023-03-10T07:37:22.171Z,100518.84
2023-03-10T07:40:01.437Z,100527.94
2023-03-10T07:45:59.030Z,100507.84
2023-03-10T07:48:26.737Z,100506.66
2023-03-10T07:51:02.518Z,100501.84
2023-03-10T07:53:33.542Z,100509.47
2023-03-10T07:56:08.255Z,100499.28
2023-03-10T07:58:42.804Z,100500.53
2023-03-10T08:01:16.681Z,100495.06
2023-03-10T08:03:45.295Z,100498.94
2023-03-10T08:06:27.978Z,100496.50
2023-03-10T08:08:56.668Z,100500.56
2023-03-10T08:11:32.042Z,100515.84
2023-03-10T08:14:06.369Z,100526.09
2023-03-10T08:16:45.426Z,100526.13
2023-03-10T08:19:13.451Z,100526.78
2023-03-10T08:21:44.981Z,100532.16
2023-03-10T08:24:24.967Z,100494.03
2023-03-10T08:27:00.691Z,100501.19
2023-03-10T08:30:25.602Z,100495.09
2023-03-10T08:32:53.531Z,100495.91
2023-03-10T08:35:34.990Z,100500.41
2023-03-10T08:38:03.821Z,100502.00
2023-03-10T08:40:35.422Z,100514.44
2023-03-10T08:43:03.444Z,100505.91
2023-03-10T08:45:31.242Z,100508.72
2023-03-10T08:48:06.455Z,100498.97
2023-03-10T08:50:36.712Z,100496.72
2023-03-10T08:53:06.844Z,100487.50
2023-03-10T08:55:36.082Z,100479.72
2023-03-10T08:58:03.933Z,100477.91
2023-03-10T09:00:33.041Z,100466.25
2023-03-10T09:03:03.899Z,100468.13
2023-03-10T09:05:31.818Z,100471.78
2023-03-10T09:07:59.476Z,100484.44
2023-03-10T09:10:38.717Z,100473.41
2023-03-10T09:13:14.610Z,100464.03
2023-03-10T09:15:42.960Z,100462.00
2023-03-10T09:18:18.700Z,100468.94
2023-03-10T09:23:37.320Z,100453.22
2023-03-10T09:26:07.952Z,100460.75
2023-03-10T09:28:36.630Z,100448.25
2023-03-10T09:31:31.719Z,100445.56
2023-03-10T09:33:59.579Z,100455.72
2023-03-10T09:36:27.521Z,100458.22
2023-03-10T09:38:55.030Z,100448.47
2023-03-10T09:42:07.499Z,100452.59
2023-03-10T09:44:51.952Z,100453.38
2023-03-10T09:47:27.964Z,100446.84
2023-03-10T09:50:23.081Z,100444.34
2023-03-10T09:53:17.044Z,100444.75
2023-03-10T09:55:48.536Z,100443.94
2023-03-10T09:58:40.073Z,100435.38
2023-03-10T10:01:34.304Z,100426.34
2023-03-10T10:04:23.366Z,100430.84
2023-03-10T10:06:51.690Z,100419.25
2023-03-10T10:09:42.621Z,100430.88
2023-03-10T10:12:16.100Z,100428.44
2023-03-10T10:14:55.261Z,100435.00
2023-03-10T10:17:25.835Z,100417.41
2023-03-10T10:19:53.660Z,100423.72
2023-03-10T10:22:30.335Z,100419.22
2023-03-10T10:25:10.187Z,100419.13
2023-03-10T10:27:39.012Z,100420.47
2023-03-10T10:30:36.808Z,100413.59
2023-03-10T10:33:06.791Z,100426.09
2023-03-10T10:36:06.142Z,100424.19
2023-03-10T10:42:58.076Z,100401.44
2023-03-10T10:45:33.804Z,100409.59
2023-03-10T10:48:06.613Z,100420.00
2023-03-10T10:50:37.893Z,100417.72
2023-03-10T10:53:38.653Z,100419.38
2023-03-10T10:56:13.913Z,100431.91
2023-03-10T10:58:43.681Z,100425.72
2023-03-10T11:01:16.896Z,100425.13
2023-03-10T11:03:48.344Z,100424.75
2023-03-10T11:06:26.007Z,100424.25
2023-03-10T11:09:09.336Z,100430.44
2023-03-10T11:12:12.132Z,100439.97
2023-03-10T11:14:50.218Z,100440.75
2023-03-10T11:17:24.073Z,100431.78
2023-03-10T11:20:17.658Z,100432.16
2023-03-10T11:23:30.144Z,100430.91
2023-03-10T11:26:10.929Z,100443.81
2023-03-10T11:28:44.435Z,100434.75
2023-03-10T11:31:53.222Z,100448.03
2023-03-10T11:34:21.346Z,100436.91
2023-03-10T11:37:21.678Z,100438.13
2023-03-10T11:39:52.132Z,100443.81
2023-03-10T11:42:31.315Z,100441.75
2023-03-10T11:45:25.269Z,100450.03
2023-03-10T11:48:29.805Z,100456.69
2023-03-10T11:51:01.070Z,100455.06
2023-03-10T11:53:45.529Z,100459.53
2023-03-10T11:56:16.216Z,100449.53
2023-03-10T11:58:53.101Z,100460.38
2023-03-10T12:01:57.488Z,100449.53
2023-03-10T12:04:31.310Z,100452.19
2023-03-10T12:07:16.488Z,100450.19
2023-03-10T12:09:52.587Z,100445.13
2023-03-10T12:12:38.880Z,100447.56
2023-03-10T12:15:24.193Z,100453.47
2023-03-10T12:17:54.082Z,100436.94
2023-03-10T12:20:22.571Z,100441.19
2023-03-10T12:22:57.563Z,100437.94
2023-03-10T12:25:33.087Z,100450.22
2023-03-10T12:28:24.851Z,100442.66
2023-03-10T12:31:07.081Z,100443.31
2023-03-10T12:33:35.327Z,100444.28
2023-03-10T12:36:16.536Z,100437.78
2023-03-10T12:38:58.915Z,100445.78
2023-03-10T12:41:26.293Z,100445.19
2023-03-10T12:44:03.001Z,100446.69
2023-03-10T12:46:58.384Z,100443.47
2023-03-10T12:49:49.050Z,100453.47
2023-03-10T12:53:16.124Z,100445.31
2023-03-10T12:56:08.572Z,100452.09
2023-03-10T12:58:38.088Z,100442.94
2023-03-10T13:01:08.267Z,100450.06
2023-03-10T13:07:49.899Z,100456.84
2023-03-10T13:10:22.178Z,100450.72
2023-03-10T13:12:53.900Z,100451.34
2023-03-10T13:15:27.967Z,100448.06
2023-03-10T13:18:31.080Z,100447.03
2023-03-10T13:21:02.129Z,100449.69
2023-03-10T13:34:21.095Z,100430.13
2023-03-10T13:36:49.357Z,100436.88
2023-03-10T13:39:28.259Z,100429.72
2023-03-10T13:41:58.370Z,100429.94
2023-03-10T13:44:45.036Z,100441.19
2023-03-10T13:47:21.411Z,100438.34
2023-03-10T13:49:55.528Z,100444.06
2023-03-10T13:52:27.676Z,100439.53
2023-03-10T13:55:17.486Z,100442.38
2023-03-10T13:57:48.042Z,100445.69
2023-03-10T14:00:24.534Z,100438.31
2023-03-10T14:02:54.107Z,100451.78
2023-03-10T14:05:40.395Z,100454.84
2023-03-10T14:08:32.724Z,100454.25
2023-03-10T14:11:22.188Z,100463.22
2023-03-10T14:13:50.000Z,100460.16
2023-03-10T14:16:17.478Z,100454.25
2023-03-10T14:18:44.869Z,100456.09
2023-03-10T14:21:24.359Z,100457.69
2023-03-10T14:23:52.153Z,100465.06
2023-03-10T14:26:19.631Z,100471.38
2023-03-10T14:28:46.905Z,100471.16
2023-03-10T14:31:21.451Z,100474.63
2023-03-10T14:33:49.142Z,100462.78
2023-03-10T14:36:16.600Z,100475.44
2023-03-10T14:38:46.771Z,100466.88
2023-03-10T14:41:15.384Z,100479.09
2023-03-10T14:43:43.100Z,100471.75
2023-03-10T14:46:13.102Z,100474.78
2023-03-10T14:48:42.202Z,100475.41
2023-03-10T14:51:32.563Z,100477.00
2023-03-10T14:54:02.244Z,100488.47
2023-03-10T14:56:30.627Z,100484.94
2023-03-10T14:59:02.633Z,100482.28
2023-03-10T15:01:31.247Z,100486.16
2023-03-10T15:03:58.561Z,100492.03
2023-03-10T15:06:25.894Z,100489.59
2023-03-10T15:08:53.204Z,100487.56
2023-03-10T15:11:35.749Z,100486.69
2023-03-10T15:14:16.683Z,100491.13
2023-03-10T15:16:44.604Z,100504.59
2023-03-10T15:19:18.596Z,100513.13
2023-03-10T15:21:45.956Z,100509.34
2023-03-10T15:24:13.534Z,100516.69
2023-03-10T15:26:40.931Z,100521.75
2023-03-10T15:29:08.301Z,100513.94
2023-03-10T15:31:35.707Z,100520.66
2023-03-10T15:34:03.107Z,100523.06
2023-03-10T15:36:30.436Z,100529.97
2023-03-10T15:38:57.758Z,100534.59
2023-03-10T15:41:25.824Z,100543.75
2023-03-10T15:43:52.994Z,100549.81
2023-03-10T15:46:20.779Z,100550.19
2023-03-10T15:48:48.108Z,100551.59
2023-03-10T15:51:18.207Z,100559.91
2023-03-10T15:53:45.697Z,100558.06
2023-03-10T15:56:14.105Z,100568.63
2023-03-10T15:58:43.180Z,100572.03
2023-03-10T16:01:17.031Z,100573.19
2023-03-10T16:03:44.720Z,100569.81
2023-03-10T16:06:12.884Z,100573.03
2023-03-10T16:08:40.334Z,100583.09
2023-03-10T16:11:16.117Z,100583.91
2023-03-10T16:13:46.803Z,100589.75
2023-03-10T16:16:14.744Z,100591.78
2023-03-10T16:18:42.061Z,100593.06
2023-03-10T16:21:10.300Z,100597.88
2023-03-10T16:23:37.832Z,100599.44
2023-03-10T16:26:17.802Z,100596.53
2023-03-10T16:28:48.181Z,100606.50
2023-03-10T16:31:17.433Z,100605.69
2023-03-10T16:33:47.005Z,100607.03
2023-03-10T16:36:17.282Z,100598.91
2023-03-10T16:38:44.917Z,100605.84
2023-03-10T16:41:12.607Z,100603.50
2023-03-10T16:43:40.108Z,100606.31
2023-03-10T16:46:25.850Z,100603.94
2023-03-10T16:48:55.145Z,100606.78
2023-03-10T16:51:25.409Z,100612.91
2023-03-10T16:53:54.654Z,100604.97
2023-03-10T16:56:22.642Z,100603.94
2023-03-10T16:58:50.907Z,100614.53
2023-03-10T17:01:18.900Z,100606.78
2023-03-10T17:03:46.986Z,100611.59
2023-03-10T17:06:17.553Z,100609.31
2023-03-10T17:08:45.028Z,100613.69
2023-03-10T17:11:31.354Z,100609.78
2023-03-10T17:14:01.614Z,100614.31
2023-03-10T17:16:31.048Z,100619.16
2023-03-10T17:19:00.800Z,100618.53
2023-03-10T17:21:33.007Z,100620.25
2023-03-10T17:24:00.386Z,100619.53
2023-03-10T17:26:28.563Z,100624.91
2023-03-10T17:28:56.250Z,100616.13
2023-03-10T17:31:26.738Z,100624.13
2023-03-10T17:34:00.524Z,100619.88
2023-03-10T17:36:28.338Z,100622.50
2023-03-10T17:38:58.015Z,100622.06
2023-03-10T17:41:26.627Z,100633.28
2023-03-10T17:43:54.695Z,100629.81
2023-03-10T17:46:23.142Z,100629.81
2023-03-10T17:48:53.724Z,100628.53
2023-03-10T17:51:26.980Z,100629.28
2023-03-10T17:53:56.651Z,100635.03
2023-03-10T17:56:24.506Z,100638.09
2023-03-10T17:58:56.072Z,100633.38
2023-03-10T18:01:29.284Z,100638.19
2023-03-10T18:03:58.427Z,100638.19
2023-03-10T18:06:29.165Z,100635.28
2023-03-10T18:08:58.744Z,100642.56
2023-03-10T18:11:27.159Z,100646.59
2023-03-10T18:13:54.679Z,100644.03
2023-03-10T18:16:25.106Z,100641.56
2023-03-10T18:18:52.735Z,100649.31
2023-03-10T18:21:20.627Z,100657.78
2023-03-10T18:23:49.019Z,100652.13
2023-03-10T18:26:20.391Z,100656.25
2023-03-10T18:28:47.761Z,100659.34
2023-03-10T18:31:19.857Z,100651.41
2023-03-10T18:33:48.640Z,100660.22
2023-03-10T18:36:17.640Z,100656.97
2023-03-10T18:38:46.034Z,100660.97
2023-03-10T18:41:14.067Z,100653.69
2023-03-10T18:43:41.280Z,100663.34
2023-03-10T18:46:08.792Z,100667.31
2023-03-10T18:48:36.268Z,100659.84
2023-03-10T18:51:13.993Z,100659.03
2023-03-10T18:53:42.426Z,100661.94
2023-03-10T18:56:10.474Z,100672.38
2023-03-10T18:58:37.673Z,100677.19
2023-03-10T19:01:14.179Z,100684.03
2023-03-10T19:03:42.297Z,100681.22
2023-03-10T19:06:10.388Z,100684.03
2023-03-10T19:08:39.021Z,100680.75
2023-03-10T19:11:07.223Z,100688.38
2023-03-10T19:13:35.673Z,100694.56
2023-03-10T19:16:07.908Z,100693.81
2023-03-10T19:18:36.145Z,100698.09
2023-03-10T19:21:04.223Z,100695.13
2023-03-10T19:23:32.527Z,100701.38
2023-03-10T19:26:00.020Z,100689.91
2023-03-10T19:28:27.820Z,100688.31
2023-03-10T19:30:55.356Z,100685.31
2023-03-10T19:33:23.726Z,100695.56
2023-03-10T19:35:59.596Z,100698.91
2023-03-10T19:38:28.380Z,100693.34
2023-03-10T19:40:55.786Z,100693.34
2023-03-10T19:43:23.187Z,100697.97
2023-03-10T19:45:50.632Z,100701.28
2023-03-10T19:48:18.213Z,100699.81
2023-03-10T19:50:45.613Z,100704.59
2023-03-10T19:53:13.044Z,100695.75
2023-03-10T19:55:41.094Z,100698.03
2023-03-10T19:58:08.464Z,100701.34
2023-03-10T20:00:36.471Z,100707.13
2023-03-10T20:03:04.300Z,100711.25
2023-03-10T20:05:31.662Z,100700.88
2023-03-10T20:07:59.279Z,100706.00
2023-03-10T20:10:26.664Z,100700.41
2023-03-10T20:12:54.092Z,100704.19
2023-03-10T20:15:21.636Z,100707.63
2023-03-10T20:17:49.058Z,100708.28
2023-03-10T20:20:20.249Z,100715.53
2023-03-10T20:22:49.873Z,100709.59
2023-03-10T20:25:19.772Z,100704.31
2023-03-10T20:27:49.110Z,100701.34
2023-03-10T20:30:18.556Z,100703.34
2023-03-10T20:32:46.183Z,100705.47
2023-03-10T20:35:15.416Z,100707.63
2023-03-10T20:37:42.864Z,100705.66
2023-03-10T20:40:13.656Z,100718.66
2023-03-10T20:42:41.416Z,100711.22
2023-03-10T20:45:10.134Z,100718.94
2023-03-10T20:47:38.065Z,100719.41
2023-03-10T20:50:06.715Z,100719.06
2023-03-10T20:52:35.746Z,100715.09
2023-03-10T20:55:03.999Z,100716.22
2023-03-10T20:57:34.305Z,100720.22
2023-03-10T21:00:01.689Z,100716.31
2023-03-10T21:02:30.792Z,100707.53
2023-03-10T21:04:58.152Z,100716.47
2023-03-10T21:07:25.468Z,100720.09
2023-03-10T21:09:52.792Z,100719.63
2023-03-10T21:12:21.391Z,100717.16
2023-03-10T21:14:48.666Z,100721.94
2023-03-10T21:17:16.039Z,100725.41
2023-03-10T21:19:43.463Z,100723.28
2023-03-10T21:22:10.746Z,100725.75
2023-03-10T21:24:38.910Z,100725.09
2023-03-10T21:27:06.331Z,100730.41
2023-03-10T21:29:34.844Z,100735.06
2023-03-10T21:32:02.207Z,100728.66
2023-03-10T21:34:31.743Z,100749.44
2023-03-10T21:36:59.657Z,100744.66
2023-03-10T21:39:27.094Z,100738.09
2023-03-10T21:41:54.522Z,100752.56
2023-03-10T21:44:21.820Z,100750.25
2023-03-10T21:46:50.807Z,100749.59
2023-03-10T21:49:18.201Z,100755.84
2023-03-10T21:51:45.561Z,100753.69
2023-03-10T21:54:12.996Z,100751.72
2023-03-10T21:56:40.532Z,100746.63
2023-03-10T21:59:08.184Z,100750.56
2023-03-10T22:01:35.573Z,100744.00
2023-03-10T22:04:02.988Z,100750.91
2023-03-10T22:06:30.657Z,100759.47
2023-03-10T22:08:58.022Z,100768.03
2023-03-10T22:11:25.305Z,100766.69
2023-03-10T22:13:54.107Z,100771.47
2023-03-10T22:16:21.694Z,100778.25
2023-03-10T22:18:49.777Z,100774.94
2023-03-10T22:21:17.773Z,100789.94
2023-03-10T22:23:45.342Z,100792.09
2023-03-10T22:26:14.281Z,100795.50
2023-03-10T22:28:41.647Z,100795.66
2023-03-10T22:31:10.338Z,100792.88
2023-03-10T22:33:37.733Z,100797.66
2023-03-10T22:36:07.488Z,100796.16
2023-03-10T22:38:35.039Z,100805.06
2023-03-10T22:41:02.684Z,100807.50
2023-03-10T22:43:30.013Z,100808.94
2023-03-10T22:45:59.461Z,100800.56
2023-03-10T22:48:26.804Z,100807.97
2023-03-10T22:50:54.126Z,100810.09
2023-03-10T22:53:21.436Z,100817.66
2023-03-10T22:55:50.104Z,100818.97
2023-03-10T22:58:17.549Z,100816.66
2023-03-10T23:00:45.001Z,100825.06
2023-03-10T23:03:14.072Z,100823.06
2023-03-10T23:05:42.173Z,100837.63
2023-03-10T23:08:09.543Z,100837.00
2023-03-10T23:10:38.206Z,100833.06
2023-03-10T23:13:08.865Z,100832.56
2023-03-10T23:15:37.917Z,100831.41
2023-03-10T23:18:06.492Z,100831.56
2023-03-10T23:20:42.991Z,100831.38
2023-03-10T23:23:12.716Z,100834.81
2023-03-10T23:25:42.423Z,100834.91
2023-03-10T23:28:11.403Z,100835.72
2023-03-10T23:30:40.694Z,100830.31
2023-03-10T23:33:08.160Z,100827.63
2023-03-10T23:35:36.188Z,100823.06
2023-03-10T23:38:05.978Z,100837.03
2023-03-10T23:40:34.738Z,100834.41
2023-03-10T23:43:03.433Z,100833.34
2023-03-10T23:45:32.622Z,100834.88
2023-03-10T23:48:01.725Z,100838.31
2023-03-10T23:50:33.182Z,100833.69
2023-03-10T23:53:00.664Z,100830.88
2023-03-10T23:55:32.415Z,100843.34
2023-03-10T23:58:00.125Z,100835.00
